createdAt,value
2017-12-31T00:00:57.590Z,9.60
2017-12-31T00:03:25.929Z,10.74
2017-12-31T00:05:54.244Z,12.86
2017-12-31T00:08:22.586Z,10.52
2017-12-31T00:10:50.888Z,11.56
2017-12-31T00:13:19.227Z,10.74
2017-12-31T00:15:47.522Z,8.92
2017-12-31T00:18:15.852Z,11.00
2017-12-31T00:20:44.166Z,10.40
2017-12-31T00:23:12.477Z,10.62
2017-12-31T00:25:40.772Z,10.80
2017-12-31T00:28:09.102Z,9.58
2017-12-31T00:30:37.439Z,9.74
2017-12-31T00:33:05.744Z,10.42
2017-12-31T00:35:34.064Z,11.64
2017-12-31T00:38:02.400Z,10.88
2017-12-31T00:40:30.713Z,13.64
2017-12-31T00:42:59.025Z,11.38
2017-12-31T00:45:27.281Z,10.08
2017-12-31T00:47:55.571Z,9.88
2017-12-31T00:50:23.913Z,10.84
2017-12-31T00:52:52.216Z,11.12
2017-12-31T00:55:20.532Z,10.06
2017-12-31T00:57:48.018Z,9.70
2017-12-31T01:00:17.666Z,10.78
2017-12-31T01:02:45.978Z,8.68
2017-12-31T01:05:14.334Z,9.12
2017-12-31T01:07:47.341Z,11.96
2017-12-31T01:10:16.622Z,11.32
2017-12-31T01:12:44.910Z,11.20
2017-12-31T01:15:13.164Z,9.58
2017-12-31T01:17:41.489Z,9.68
2017-12-31T01:20:11.701Z,9.28
2017-12-31T01:22:39.990Z,9.32
2017-12-31T01:25:08.254Z,9.56
2017-12-31T01:27:36.530Z,9.56
2017-12-31T01:30:04.791Z,8.12
2017-12-31T01:32:33.074Z,9.12
2017-12-31T01:35:01.362Z,9.14
2017-12-31T01:37:28.856Z,10.76
2017-12-31T01:39:57.137Z,10.50
2017-12-31T01:42:25.389Z,10.44
2017-12-31T01:44:53.668Z,9.42
2017-12-31T01:47:21.199Z,8.12
2017-12-31T01:49:49.497Z,9.22
2017-12-31T01:52:17.786Z,8.86
2017-12-31T01:54:47.090Z,9.46
2017-12-31T01:57:16.826Z,8.42
2017-12-31T01:59:46.236Z,7.60
2017-12-31T02:02:14.514Z,7.70
2017-12-31T02:04:42.758Z,8.00
2017-12-31T02:07:11.104Z,6.30
2017-12-31T02:09:39.357Z,7.10
2017-12-31T02:12:07.642Z,6.88
2017-12-31T02:14:35.904Z,6.40
2017-12-31T02:17:04.185Z,6.42
2017-12-31T02:19:32.469Z,6.78
2017-12-31T02:22:00.737Z,7.02
2017-12-31T02:24:29.024Z,7.08
2017-12-31T02:26:57.288Z,6.58
2017-12-31T02:29:25.579Z,6.36
2017-12-31T02:31:53.834Z,7.10
2017-12-31T02:34:22.117Z,5.72
2017-12-31T02:36:50.385Z,5.98
2017-12-31T02:39:18.655Z,6.42
2017-12-31T02:41:46.952Z,6.28
2017-12-31T02:44:16.346Z,6.36
2017-12-31T02:46:46.333Z,6.98
2017-12-31T02:49:16.299Z,5.68
2017-12-31T02:51:45.680Z,6.82
2017-12-31T02:54:13.962Z,5.20
2017-12-31T02:56:42.225Z,6.86
2017-12-31T02:59:10.509Z,5.96
2017-12-31T03:01:38.812Z,5.42
2017-12-31T03:04:07.081Z,5.96
2017-12-31T03:06:35.366Z,4.86
2017-12-31T03:09:03.622Z,5.02
2017-12-31T03:11:31.893Z,4.34
2017-12-31T03:14:00.162Z,4.52
2017-12-31T03:16:28.415Z,3.62
2017-12-31T03:18:56.697Z,3.58
2017-12-31T03:21:24.993Z,4.64
2017-12-31T03:23:53.251Z,3.50
2017-12-31T03:26:21.498Z,3.40
2017-12-31T03:28:49.805Z,3.84
2017-12-31T03:31:18.081Z,4.06
2017-12-31T03:33:47.686Z,3.38
2017-12-31T03:36:17.000Z,3.58
2017-12-31T03:38:46.003Z,3.24
2017-12-31T03:41:14.289Z,4.34
2017-12-31T03:43:42.571Z,3.24
2017-12-31T03:46:10.818Z,3.54
2017-12-31T03:48:39.113Z,3.42
2017-12-31T03:51:07.389Z,3.74
2017-12-31T03:53:35.654Z,3.64
2017-12-31T03:56:03.937Z,3.86
2017-12-31T03:58:32.227Z,3.92
2017-12-31T04:01:00.522Z,3.54
2017-12-31T04:03:28.783Z,4.20
2017-12-31T04:05:57.052Z,3.94
2017-12-31T04:08:25.351Z,3.92
2017-12-31T04:10:53.640Z,4.92
2017-12-31T04:13:21.886Z,4.32
2017-12-31T04:15:50.137Z,4.44
2017-12-31T04:18:18.420Z,4.40
2017-12-31T04:20:47.563Z,4.20
2017-12-31T04:23:15.837Z,5.36
2017-12-31T04:25:44.089Z,3.88
2017-12-31T04:28:12.370Z,6.04
2017-12-31T04:30:40.617Z,5.50
2017-12-31T04:33:08.903Z,5.98
2017-12-31T04:35:37.153Z,6.46
2017-12-31T04:38:05.483Z,6.28
2017-12-31T04:40:33.758Z,5.74
2017-12-31T04:43:02.039Z,6.50
2017-12-31T04:45:30.292Z,6.66
2017-12-31T04:47:58.565Z,7.24
2017-12-31T04:50:26.814Z,6.64
2017-12-31T04:52:55.098Z,6.86
2017-12-31T04:55:22.594Z,6.88
2017-12-31T04:57:50.877Z,7.10
2017-12-31T05:00:19.143Z,7.74
2017-12-31T05:02:47.413Z,6.28
2017-12-31T05:05:16.633Z,5.30
2017-12-31T05:07:44.897Z,5.80
2017-12-31T05:10:13.149Z,5.82
2017-12-31T05:12:41.437Z,6.30
2017-12-31T05:15:09.717Z,6.30
2017-12-31T05:17:37.966Z,5.80
2017-12-31T05:20:06.253Z,6.62
2017-12-31T05:22:34.530Z,7.20
2017-12-31T05:25:02.814Z,6.20
2017-12-31T05:27:31.062Z,7.46
2017-12-31T05:29:59.351Z,6.92
2017-12-31T05:32:27.633Z,7.38
2017-12-31T05:34:55.900Z,7.00
2017-12-31T05:37:24.185Z,7.42
2017-12-31T05:39:52.474Z,8.28
2017-12-31T05:42:20.721Z,5.68
2017-12-31T05:44:48.998Z,9.00
2017-12-31T05:47:17.285Z,6.46
2017-12-31T05:49:46.763Z,5.50
2017-12-31T05:52:15.080Z,6.92
2017-12-31T05:54:43.361Z,6.60
2017-12-31T05:57:11.625Z,6.00
2017-12-31T05:59:39.909Z,5.34
2017-12-31T06:02:08.170Z,7.34
2017-12-31T06:04:36.466Z,6.64
2017-12-31T06:07:04.735Z,5.72
2017-12-31T06:09:33.039Z,6.24
2017-12-31T06:12:01.290Z,5.28
2017-12-31T06:14:29.553Z,5.96
2017-12-31T06:16:57.866Z,6.72
2017-12-31T06:19:26.136Z,5.22
2017-12-31T06:21:54.400Z,7.12
2017-12-31T06:24:22.693Z,4.70
2017-12-31T06:26:50.938Z,6.66
2017-12-31T06:29:19.196Z,4.38
2017-12-31T06:31:47.474Z,6.66
2017-12-31T06:34:15.722Z,5.34
2017-12-31T06:36:44.002Z,4.64
2017-12-31T06:39:12.254Z,5.26
2017-12-31T06:41:40.558Z,4.70
2017-12-31T06:44:08.809Z,7.04
2017-12-31T06:46:37.058Z,6.02
2017-12-31T06:49:05.338Z,4.98
2017-12-31T06:51:33.619Z,5.10
2017-12-31T06:54:01.878Z,6.32
2017-12-31T06:56:30.185Z,5.48
2017-12-31T06:58:58.442Z,4.92
2017-12-31T07:01:26.736Z,4.36
2017-12-31T07:03:54.981Z,4.44
2017-12-31T07:06:23.280Z,4.08
2017-12-31T07:08:51.529Z,6.42
2017-12-31T07:11:19.810Z,6.48
2017-12-31T07:13:48.071Z,4.14
2017-12-31T07:16:17.677Z,4.84
2017-12-31T07:18:46.969Z,4.40
2017-12-31T07:21:16.389Z,4.30
2017-12-31T07:23:45.461Z,4.28
2017-12-31T07:26:13.726Z,5.18
2017-12-31T07:28:42.022Z,4.96
2017-12-31T07:31:10.274Z,4.94
2017-12-31T07:33:38.530Z,4.28
2017-12-31T07:36:06.822Z,4.50
2017-12-31T07:38:35.071Z,3.50
2017-12-31T07:41:03.350Z,4.40
2017-12-31T07:43:31.597Z,3.72
2017-12-31T07:45:59.892Z,3.76
2017-12-31T07:48:28.138Z,3.76
2017-12-31T07:50:56.911Z,4.20
2017-12-31T07:53:25.195Z,4.96
2017-12-31T07:55:53.471Z,3.82
2017-12-31T07:58:21.759Z,3.50
2017-12-31T08:00:50.005Z,4.16
2017-12-31T08:03:18.286Z,3.22
2017-12-31T08:05:47.415Z,4.92
2017-12-31T08:08:16.213Z,4.86
2017-12-31T08:10:44.501Z,3.40
2017-12-31T08:13:13.279Z,3.68
2017-12-31T08:15:41.530Z,3.72
2017-12-31T08:18:12.997Z,5.10
2017-12-31T08:20:41.242Z,5.18
2017-12-31T08:23:09.526Z,4.32
2017-12-31T08:25:37.769Z,4.00
2017-12-31T08:28:06.076Z,4.88
2017-12-31T08:30:34.352Z,4.56
2017-12-31T08:33:02.606Z,3.84
2017-12-31T08:35:30.870Z,3.60
2017-12-31T08:37:59.124Z,3.52
2017-12-31T08:40:27.397Z,3.56
2017-12-31T08:42:55.656Z,4.18
2017-12-31T08:45:23.938Z,3.42
2017-12-31T08:47:52.222Z,3.92
2017-12-31T08:50:20.473Z,3.26
2017-12-31T08:52:48.775Z,4.10
2017-12-31T08:55:17.021Z,3.90
2017-12-31T08:57:46.282Z,5.26
2017-12-31T09:00:14.561Z,3.58
2017-12-31T09:02:42.949Z,5.34
2017-12-31T09:08:05.157Z,3.38
2017-12-31T09:10:33.405Z,4.42
2017-12-31T09:13:05.217Z,3.42
2017-12-31T09:15:33.921Z,4.34
2017-12-31T09:18:02.216Z,3.90
2017-12-31T09:20:30.466Z,4.20
2017-12-31T09:22:58.750Z,6.46
2017-12-31T09:25:27.002Z,3.50
2017-12-31T09:27:55.277Z,4.40
2017-12-31T09:30:22.765Z,4.66
2017-12-31T09:32:51.057Z,3.70
2017-12-31T09:35:19.309Z,3.94
2017-12-31T09:37:47.585Z,3.10
2017-12-31T09:40:15.833Z,3.90
2017-12-31T09:42:44.114Z,3.72
2017-12-31T09:45:13.351Z,3.94
2017-12-31T09:47:42.809Z,3.54
2017-12-31T09:50:14.059Z,3.74
2017-12-31T09:52:42.362Z,4.04
2017-12-31T09:55:14.241Z,4.02
2017-12-31T09:57:42.532Z,4.22
2017-12-31T10:00:11.797Z,5.06
2017-12-31T10:02:41.895Z,4.18
2017-12-31T10:05:10.955Z,3.34
2017-12-31T10:07:39.234Z,4.24
2017-12-31T10:10:07.490Z,4.02
2017-12-31T10:12:36.688Z,4.08
2017-12-31T10:15:04.940Z,3.54
2017-12-31T10:17:50.113Z,3.18
2017-12-31T10:20:18.411Z,4.28
2017-12-31T10:22:50.669Z,3.68
2017-12-31T10:25:18.949Z,4.28
2017-12-31T10:27:51.028Z,5.50
2017-12-31T10:30:19.291Z,4.10
2017-12-31T10:32:51.235Z,4.72
2017-12-31T10:35:19.486Z,3.70
2017-12-31T10:38:02.861Z,3.68
2017-12-31T10:40:31.120Z,3.64
2017-12-31T10:42:59.365Z,6.08
2017-12-31T10:45:31.125Z,3.32
2017-12-31T10:47:59.373Z,3.20
2017-12-31T10:50:28.617Z,3.76
2017-12-31T10:52:56.897Z,3.80
2017-12-31T10:55:25.169Z,4.58
2017-12-31T10:57:53.423Z,3.52
2017-12-31T11:00:21.702Z,3.74
2017-12-31T11:02:49.995Z,3.78
2017-12-31T11:05:24.010Z,3.52
2017-12-31T11:07:52.302Z,4.50
2017-12-31T11:10:38.718Z,3.54
2017-12-31T11:13:07.023Z,3.74
2017-12-31T11:15:34.506Z,3.60
2017-12-31T11:18:02.750Z,3.92
2017-12-31T11:20:45.787Z,3.88
2017-12-31T11:23:14.034Z,3.54
2017-12-31T11:25:54.094Z,3.60
2017-12-31T11:28:22.337Z,3.70
2017-12-31T11:30:51.559Z,3.32
2017-12-31T11:33:19.043Z,3.90
2017-12-31T11:38:57.362Z,3.14
2017-12-31T11:41:25.640Z,3.60
2017-12-31T11:44:12.906Z,3.00
2017-12-31T11:46:42.201Z,4.08
2017-12-31T11:49:10.446Z,3.28
2017-12-31T11:51:38.726Z,3.00
2017-12-31T11:54:07.237Z,3.98
2017-12-31T11:56:35.556Z,3.30
2017-12-31T11:59:04.727Z,4.14
2017-12-31T12:01:33.019Z,3.68
2017-12-31T12:04:01.335Z,3.74
2017-12-31T12:06:29.642Z,3.42
2017-12-31T12:08:57.926Z,3.12
2017-12-31T12:11:26.255Z,3.70
2017-12-31T12:14:02.060Z,2.64
2017-12-31T12:16:30.331Z,3.90
2017-12-31T12:18:58.592Z,3.76
2017-12-31T12:21:26.892Z,3.80
2017-12-31T12:23:55.165Z,3.58
2017-12-31T12:26:23.441Z,3.04
2017-12-31T12:29:01.431Z,2.98
2017-12-31T12:31:29.718Z,3.68
2017-12-31T12:33:58.024Z,4.08
2017-12-31T12:36:26.309Z,3.10
2017-12-31T12:39:00.713Z,3.88
2017-12-31T12:41:28.993Z,3.66
2017-12-31T12:44:12.430Z,4.20
2017-12-31T12:46:41.363Z,3.24
2017-12-31T12:49:09.610Z,3.12
2017-12-31T12:51:37.897Z,3.42
2017-12-31T12:54:16.962Z,3.58
2017-12-31T12:56:45.242Z,3.70
2017-12-31T12:59:20.087Z,2.92
2017-12-31T13:01:48.388Z,2.40
2017-12-31T13:04:33.852Z,3.40
2017-12-31T13:07:02.143Z,2.94
2017-12-31T13:09:30.458Z,3.20
2017-12-31T13:11:58.803Z,3.12
2017-12-31T13:14:27.050Z,3.16
2017-12-31T13:16:55.445Z,3.68
2017-12-31T13:19:27.140Z,3.66
2017-12-31T13:21:55.390Z,3.50
2017-12-31T13:24:42.571Z,3.34
2017-12-31T13:27:12.161Z,3.54
2017-12-31T13:29:41.369Z,3.80
2017-12-31T13:32:09.647Z,2.82
2017-12-31T13:37:31.926Z,3.24
2017-12-31T13:40:00.170Z,3.72
2017-12-31T13:42:45.448Z,2.74
2017-12-31T13:45:13.736Z,3.36
2017-12-31T13:48:02.073Z,3.04
2017-12-31T13:50:30.360Z,3.52
2017-12-31T13:53:09.024Z,3.10
2017-12-31T13:55:37.281Z,2.82
2017-12-31T13:58:29.294Z,3.36
2017-12-31T14:00:57.545Z,3.48
2017-12-31T14:03:36.141Z,2.86
2017-12-31T14:06:04.401Z,2.80
2017-12-31T14:08:49.976Z,2.82
2017-12-31T14:11:18.225Z,3.40
2017-12-31T14:14:09.435Z,3.46
2017-12-31T14:16:37.740Z,3.36
2017-12-31T14:19:12.089Z,3.34
2017-12-31T14:21:40.413Z,3.42
2017-12-31T14:24:08.689Z,2.70
2017-12-31T14:26:36.951Z,3.56
2017-12-31T14:29:08.624Z,2.90
2017-12-31T14:31:36.874Z,4.64
2017-12-31T14:34:22.440Z,2.64
2017-12-31T14:36:50.692Z,3.00
2017-12-31T14:39:19.015Z,3.28
2017-12-31T14:41:47.313Z,3.10
2017-12-31T14:44:15.557Z,2.92
2017-12-31T14:46:43.851Z,4.12
2017-12-31T14:49:13.422Z,3.44
2017-12-31T14:51:42.929Z,3.00
2017-12-31T14:54:12.138Z,3.20
2017-12-31T14:56:40.405Z,3.32
2017-12-31T14:59:08.700Z,3.00
2017-12-31T15:01:36.982Z,2.64
2017-12-31T15:04:05.226Z,2.84
2017-12-31T15:06:34.252Z,3.00
2017-12-31T15:09:02.568Z,3.18
2017-12-31T15:14:28.008Z,2.88
2017-12-31T15:16:56.341Z,3.72
2017-12-31T15:19:37.555Z,2.92
2017-12-31T15:22:05.891Z,3.30
2017-12-31T15:24:45.791Z,3.10
2017-12-31T15:27:14.089Z,3.92
2017-12-31T15:32:41.560Z,2.64
2017-12-31T15:35:09.813Z,2.94
2017-12-31T15:37:50.465Z,3.82
2017-12-31T15:40:18.718Z,4.28
2017-12-31T15:43:01.498Z,2.96
2017-12-31T15:45:29.752Z,3.16
2017-12-31T15:48:03.414Z,3.10
2017-12-31T15:50:31.717Z,3.12
2017-12-31T15:53:00.012Z,3.10
2017-12-31T15:55:28.294Z,2.92
2017-12-31T15:57:57.520Z,3.52
2017-12-31T16:00:25.797Z,3.24
2017-12-31T16:02:55.018Z,3.70
2017-12-31T16:05:23.358Z,4.30
2017-12-31T16:08:11.827Z,3.16
2017-12-31T16:10:41.282Z,3.86
2017-12-31T16:13:09.583Z,3.22
2017-12-31T16:15:37.870Z,3.74
2017-12-31T16:18:06.154Z,3.80
2017-12-31T16:20:34.475Z,3.22
2017-12-31T16:23:04.849Z,3.46
2017-12-31T16:25:33.117Z,4.52
2017-12-31T16:28:06.580Z,4.84
2017-12-31T16:30:34.872Z,5.66
2017-12-31T16:33:05.133Z,7.14
2017-12-31T16:35:33.427Z,6.78
2017-12-31T16:38:01.727Z,6.00
2017-12-31T16:40:30.066Z,6.62
2017-12-31T16:43:00.287Z,5.84
2017-12-31T16:45:28.576Z,5.58
2017-12-31T16:48:21.048Z,6.68
2017-12-31T16:50:49.377Z,5.14
2017-12-31T16:53:24.054Z,5.14
2017-12-31T16:55:51.521Z,5.68
2017-12-31T16:58:19.773Z,5.68
2017-12-31T17:00:48.075Z,5.48
2017-12-31T17:03:16.361Z,4.22
2017-12-31T17:06:10.890Z,5.36
2017-12-31T17:08:39.238Z,3.72
2017-12-31T17:11:07.496Z,4.06
2017-12-31T17:13:35.814Z,3.98
2017-12-31T17:16:04.110Z,4.02
2017-12-31T17:18:32.432Z,3.76
2017-12-31T17:21:00.715Z,3.52
2017-12-31T17:23:28.974Z,3.86
2017-12-31T17:25:57.262Z,3.18
2017-12-31T17:28:25.556Z,3.78
2017-12-31T17:30:53.838Z,4.20
2017-12-31T17:33:22.653Z,3.44
2017-12-31T17:38:53.351Z,4.68
2017-12-31T17:41:21.681Z,4.54
2017-12-31T17:44:05.101Z,5.06
2017-12-31T17:46:33.447Z,3.26
2017-12-31T17:49:12.375Z,3.54
2017-12-31T17:51:41.486Z,3.30
2017-12-31T17:54:13.756Z,4.12
2017-12-31T17:56:49.362Z,5.02
2017-12-31T17:59:17.705Z,5.04
2017-12-31T18:01:46.903Z,4.82
2017-12-31T18:04:15.224Z,3.96
2017-12-31T18:06:54.383Z,4.62
2017-12-31T18:09:22.657Z,5.22
2017-12-31T18:11:50.938Z,5.60
2017-12-31T18:14:19.185Z,5.46
2017-12-31T18:16:54.603Z,5.08
2017-12-31T18:19:22.933Z,4.80
2017-12-31T18:24:44.479Z,5.52
2017-12-31T18:27:12.827Z,4.82
2017-12-31T18:32:42.698Z,4.90
2017-12-31T18:35:12.147Z,5.62
2017-12-31T18:40:37.886Z,4.64
2017-12-31T18:43:06.165Z,4.68
2017-12-31T18:45:41.625Z,4.52
2017-12-31T18:48:09.909Z,4.22
2017-12-31T18:50:53.224Z,4.72
2017-12-31T18:53:21.477Z,4.72
2017-12-31T18:55:59.617Z,5.20
2017-12-31T18:58:27.901Z,4.68
2017-12-31T19:01:01.976Z,4.34
2017-12-31T19:03:31.296Z,4.60
2017-12-31T19:06:09.647Z,5.32
2017-12-31T19:08:37.955Z,6.62
2017-12-31T19:11:17.851Z,6.50
2017-12-31T19:13:46.143Z,5.82
2017-12-31T19:16:15.438Z,5.16
2017-12-31T19:18:43.708Z,4.82
2017-12-31T19:21:36.152Z,4.28
2017-12-31T19:26:41.923Z,4.18
2017-12-31T19:29:11.013Z,4.54
2017-12-31T19:31:42.436Z,12.74
2017-12-31T19:34:11.455Z,6.76
2017-12-31T19:36:47.357Z,5.06
2017-12-31T19:39:15.633Z,5.10
2017-12-31T19:41:55.563Z,4.36
2017-12-31T19:44:23.884Z,3.70
2017-12-31T19:46:52.201Z,4.88
2017-12-31T19:52:35.054Z,4.04
2017-12-31T19:55:03.407Z,3.88
2017-12-31T19:57:31.728Z,2.78
2017-12-31T20:00:00.039Z,4.26
2017-12-31T20:02:41.707Z,4.40
2017-12-31T20:05:10.024Z,3.90
2017-12-31T20:07:54.766Z,3.56
2017-12-31T20:10:23.031Z,4.28
2017-12-31T20:12:57.188Z,3.76
2017-12-31T20:15:25.492Z,3.98
2017-12-31T20:18:12.277Z,4.44
2017-12-31T20:20:41.673Z,3.98
2017-12-31T20:23:09.966Z,4.06
2017-12-31T20:25:38.317Z,4.18
2017-12-31T20:28:06.561Z,3.20
2017-12-31T20:30:34.871Z,3.20
2017-12-31T20:33:03.208Z,3.48
2017-12-31T20:35:31.466Z,3.14
2017-12-31T20:40:57.351Z,5.38
2017-12-31T20:43:25.653Z,5.52
2017-12-31T20:45:55.165Z,4.32
2017-12-31T20:48:23.501Z,3.88
2017-12-31T20:50:56.287Z,3.46
2017-12-31T20:53:24.622Z,3.98
2017-12-31T20:55:52.954Z,5.30
2017-12-31T20:58:21.349Z,3.92
2017-12-31T21:00:57.545Z,3.68
2017-12-31T21:03:25.907Z,3.60
2017-12-31T21:06:00.505Z,3.42
2017-12-31T21:08:28.814Z,4.06
2017-12-31T21:10:59.150Z,3.42
2017-12-31T21:13:27.467Z,3.90
2017-12-31T21:16:07.506Z,6.84
2017-12-31T21:18:36.058Z,4.24
2017-12-31T21:21:06.438Z,3.52
2017-12-31T21:23:34.789Z,2.92
2017-12-31T21:26:03.275Z,3.82
2017-12-31T21:28:31.620Z,3.76
2017-12-31T21:31:06.064Z,3.70
2017-12-31T21:33:34.431Z,3.12
2017-12-31T21:36:23.031Z,3.28
2017-12-31T21:38:51.373Z,3.34
2017-12-31T21:41:23.162Z,3.12
2017-12-31T21:43:51.506Z,3.84
2017-12-31T21:46:19.823Z,3.66
2017-12-31T21:48:48.134Z,3.52
2017-12-31T21:51:23.181Z,3.82
2017-12-31T21:53:51.481Z,5.96
2017-12-31T21:56:22.684Z,5.10
2017-12-31T21:58:50.949Z,4.12
2017-12-31T22:07:09.234Z,4.46
2017-12-31T22:09:37.536Z,4.24
2017-12-31T22:12:05.809Z,4.02
2017-12-31T22:14:42.616Z,3.22
2017-12-31T22:17:11.937Z,5.20
2017-12-31T22:19:41.804Z,4.18
2017-12-31T22:22:10.902Z,3.58
2017-12-31T22:24:43.733Z,4.20
2017-12-31T22:27:12.788Z,4.22
2017-12-31T22:29:57.979Z,3.64
2017-12-31T22:32:26.307Z,3.46
2017-12-31T22:38:07.914Z,3.42
2017-12-31T22:40:36.212Z,4.30
2017-12-31T22:43:04.693Z,3.54
2017-12-31T22:45:32.937Z,2.72
2017-12-31T22:48:01.230Z,2.84
2017-12-31T22:50:29.488Z,3.46
2017-12-31T22:53:04.836Z,2.92
2017-12-31T22:55:33.160Z,3.94
2017-12-31T22:58:19.677Z,4.40
2017-12-31T23:00:53.543Z,8.98
2017-12-31T23:03:22.140Z,15.74
2017-12-31T23:05:50.439Z,59.60
2017-12-31T23:08:18.748Z,159.30
2017-12-31T23:13:41.009Z,343.66
2017-12-31T23:16:09.293Z,70.38
2017-12-31T23:18:37.592Z,67.74
2017-12-31T23:21:07.894Z,32.34
2017-12-31T23:23:36.205Z,35.78
2017-12-31T23:26:05.532Z,35.12
2017-12-31T23:28:33.870Z,36.78
2017-12-31T23:31:04.182Z,23.64
2017-12-31T23:33:44.665Z,15.74
2017-12-31T23:36:12.953Z,14.60
2017-12-31T23:38:45.957Z,15.62
2017-12-31T23:41:14.333Z,9.04
2017-12-31T23:43:42.628Z,12.36
2017-12-31T23:46:12.431Z,5.58
2017-12-31T23:51:33.702Z,8.78
2017-12-31T23:54:02.019Z,9.04
2017-12-31T23:56:42.405Z,8.96
2017-12-31T23:59:11.792Z,5.78
